Terminal Aerodrome Forecast
Issued by NWS

Home | Current Version | Previous Version | Text Only | Print | Product List | Glossary On
Versions: 1 2 3 4 5 6 7 8 9 10 11 12 13 14 15 16 17
520
FTUS45 KABQ 240537
TAFLVS
TAF
KLVS 240537Z 2406/2506 23010KT P6SM VCSH BKN015
     FM240800 19011KT 4SM BR OVC009
     FM241500 21015G25KT P6SM SKC
     FM241900 22022G32KT P6SM SKC
     FM250100 16011KT P6SM FEW080=

USA.gov is the U.S. government's official web portal to all federal, state and local government web resources and services.